Time;durP1;ratioP1;P1;durP2;ratioP2;P2;SDS_P1;SDS_P2;PMS_P1;PMS_P2;Temp;Humidity;BMP_temperature;BMP_pressure;BME280_temperature;BME280_humidity;BME280_pressure;Samples;Min_cycle;Max_cycle;Signal;HPM_P1;HPM_P2
2023/05/23 00:00:13;;;;;;;7.03;3.60;;;12.20;99.90;10.30;100434;;;;559874;251;24136;-76
2023/05/23 00:02:41;;;;;;;6.60;3.50;;;10.80;99.90;10.20;100433;;;;559675;252;24218;-75
2023/05/23 00:05:09;;;;;;;10.83;4.20;;;11.00;99.90;10.20;100425;;;;560141;252;24107;-78
2023/05/23 00:07:37;;;;;;;9.43;4.10;;;11.00;99.90;10.20;100425;;;;568046;252;24190;-79
2023/05/23 00:10:06;;;;;;;13.43;4.23;;;11.00;99.90;10.20;100418;;;;560326;252;24141;-76
2023/05/23 00:12:36;;;;;;;12.47;4.63;;;10.90;99.90;10.20;100422;;;;560760;252;24120;-81
2023/05/23 00:15:07;;;;;;;12.50;4.80;;;11.00;99.90;10.10;100417;;;;560916;252;24124;-80
2023/05/23 00:17:32;;;;;;;7.87;3.53;;;11.00;99.90;10.10;100415;;;;561072;252;24101;-79
2023/05/23 00:20:01;;;;;;;9.80;4.37;;;10.80;99.90;10.10;100422;;;;560363;252;24093;-81
2023/05/23 00:22:29;;;;;;;7.30;4.00;;;10.70;99.90;10.00;100412;;;;560481;252;24138;-79
2023/05/23 00:24:58;;;;;;;16.57;5.00;;;11.10;99.90;10.00;100411;;;;560393;251;24143;-81
2023/05/23 00:27:26;;;;;;;10.47;4.27;;;10.80;99.90;10.00;100406;;;;559707;251;24127;-81
2023/05/23 00:29:54;;;;;;;14.13;4.57;;;10.70;99.90;9.90;100408;;;;560268;251;24134;-80
2023/05/23 00:32:24;;;;;;;21.90;5.93;;;10.90;99.90;9.90;100405;;;;560609;252;24119;-78
2023/05/23 00:34:53;;;;;;;21.27;4.97;;;10.70;99.90;9.90;100396;;;;570111;250;24117;-81
2023/05/23 00:37:21;;;;;;;24.03;6.07;;;11.70;99.90;9.90;100396;;;;570173;252;24119;-75
2023/05/23 00:39:51;;;;;;;26.20;6.03;;;10.50;99.90;9.80;100393;;;;560270;252;24148;-80
2023/05/23 00:42:16;;;;;;;21.73;5.57;;;10.60;99.90;9.80;100388;;;;559315;252;24119;-79
2023/05/23 00:44:47;;;;;;;31.00;7.47;;;10.60;99.90;9.80;100387;;;;559654;252;24109;-76
2023/05/23 00:47:12;;;;;;;20.43;5.47;;;10.70;99.90;9.80;100389;;;;559414;252;25193;-79
2023/05/23 00:49:43;;;;;;;23.03;6.67;;;10.30;99.90;9.80;100382;;;;559684;252;24125;-79
2023/05/23 00:52:08;;;;;;;19.60;5.17;;;10.80;99.90;9.70;100377;;;;557936;252;24169;-74
2023/05/23 00:54:36;;;;;;;26.07;6.67;;;10.50;99.90;9.70;100384;;;;559156;252;24137;-76
2023/05/23 00:57:08;;;;;;;26.30;5.63;;;10.70;99.90;9.70;100379;;;;559172;248;24189;-75
2023/05/23 00:59:32;;;;;;;26.83;5.73;;;10.70;99.90;9.70;100389;;;;559673;252;24139;-75
2023/05/23 01:02:00;;;;;;;12.83;5.23;;;10.50;99.90;9.60;100382;;;;559855;252;24126;-76
2023/05/23 01:04:28;;;;;;;15.83;5.20;;;10.40;99.90;9.60;100383;;;;557992;252;24223;-74
2023/05/23 01:06:59;;;;;;;11.73;5.27;;;10.20;99.90;9.50;100381;;;;560102;252;24109;-75
2023/05/23 01:09:28;;;;;;;12.80;4.47;;;10.50;99.90;9.50;100381;;;;560029;252;24120;-74
2023/05/23 01:11:55;;;;;;;19.87;6.37;;;10.30;99.90;9.50;100366;;;;559774;252;24126;-79
2023/05/23 01:14:35;;;;;;;16.50;5.87;;;10.40;99.90;9.50;100373;;;;556470;252;24138;-79
2023/05/23 01:17:03;;;;;;;15.83;5.47;;;9.80;99.90;9.40;100371;;;;559006;252;24132;-80
2023/05/23 01:19:53;;;;;;;13.57;5.60;;;10.20;99.90;9.40;100376;;;;558728;252;24137;-79
2023/05/23 01:22:20;;;;;;;16.70;5.77;;;10.20;99.90;9.30;100370;;;;568711;251;24123;-81
2023/05/23 01:24:55;;;;;;;22.03;5.17;;;10.00;99.90;9.30;100372;;;;560212;252;24195;-80
2023/05/23 01:27:38;;;;;;;8.37;4.40;;;10.10;99.90;9.20;100369;;;;559192;252;24186;-78
2023/05/23 01:30:06;;;;;;;12.60;5.30;;;10.00;99.90;9.20;100365;;;;559410;252;24125;-78
2023/05/23 01:32:34;;;;;;;10.30;4.43;;;10.20;99.90;9.20;100362;;;;559838;252;24118;-81
2023/05/23 01:35:02;;;;;;;13.07;6.37;;;10.20;99.90;9.20;100363;;;;555311;252;35464;-75
2023/05/23 01:37:30;;;;;;;16.90;5.47;;;10.00;99.90;9.10;100362;;;;560604;252;24108;-73
2023/05/23 01:39:58;;;;;;;24.27;5.10;;;10.00;99.90;9.10;100360;;;;560166;252;24128;-78
2023/05/23 01:42:27;;;;;;;8.73;4.10;;;10.10;99.90;9.10;100357;;;;560137;252;24121;-75
2023/05/23 01:44:58;;;;;;;16.27;5.83;;;9.90;99.90;9.10;100361;;;;559909;252;24118;-75
2023/05/23 01:47:23;;;;;;;14.43;4.97;;;9.90;99.90;9.00;100354;;;;559746;252;24109;-75
2023/05/23 01:49:51;;;;;;;16.20;5.43;;;10.00;99.90;9.00;100356;;;;559620;252;24151;-74
2023/05/23 01:52:23;;;;;;;8.27;4.27;;;9.80;99.90;9.00;100357;;;;559546;252;24136;-73
2023/05/23 01:54:48;;;;;;;14.10;5.40;;;9.00;99.90;9.00;100349;;;;559343;252;24207;-75
2023/05/23 01:57:16;;;;;;;13.47;6.53;;;9.90;99.90;9.00;100351;;;;554126;248;35569;-73
2023/05/23 01:59:44;;;;;;;11.07;5.67;;;9.90;99.90;9.00;100353;;;;559220;252;24093;-76
2023/05/23 02:02:12;;;;;;;17.20;6.40;;;9.90;99.90;9.00;100348;;;;559016;252;24149;-74
2023/05/23 02:04:40;;;;;;;10.17;5.13;;;9.70;99.90;9.00;100348;;;;559082;252;24179;-74
2023/05/23 02:07:09;;;;;;;14.53;5.80;;;9.80;99.90;8.90;100343;;;;559071;252;24155;-74
2023/05/23 02:09:37;;;;;;;9.27;5.17;;;9.70;99.90;8.90;100352;;;;559511;252;24102;-77
2023/05/23 02:12:08;;;;;;;14.03;5.40;;;9.70;99.90;8.90;100346;;;;559145;252;24133;-78
2023/05/23 02:14:33;;;;;;;18.77;7.40;;;9.70;99.90;8.90;100350;;;;553891;252;35525;-78
2023/05/23 02:17:01;;;;;;;10.13;5.30;;;9.60;99.90;8.80;100345;;;;559456;252;24291;-75
2023/05/23 02:19:30;;;;;;;12.27;5.70;;;9.70;99.90;8.80;100344;;;;558930;252;24122;-77
2023/05/23 02:21:57;;;;;;;15.50;6.20;;;9.60;99.90;8.80;100344;;;;558749;252;24133;-80
2023/05/23 02:24:26;;;;;;;12.07;5.23;;;9.60;99.90;8.80;100340;;;;560127;252;24121;-77
2023/05/23 02:26:55;;;;;;;12.90;5.57;;;9.60;99.90;8.80;100343;;;;559506;252;24145;-80
2023/05/23 02:29:23;;;;;;;14.77;6.03;;;9.80;99.90;8.80;100340;;;;560344;252;25216;-76
2023/05/23 02:31:51;;;;;;;12.10;6.20;;;9.60;99.90;8.80;100344;;;;560228;250;24202;-73
2023/05/23 02:34:19;;;;;;;19.23;6.80;;;9.30;99.90;8.80;100344;;;;561451;252;24183;-82
2023/05/23 02:36:47;;;;;;;14.90;6.33;;;9.70;99.90;8.80;100343;;;;560909;252;24154;-75
2023/05/23 02:39:18;;;;;;;10.40;5.47;;;9.40;99.90;8.80;100341;;;;560322;252;24175;-75
2023/05/23 02:41:43;;;;;;;13.33;6.80;;;9.70;99.90;8.80;100343;;;;562865;252;35550;-80
2023/05/23 02:44:12;;;;;;;18.47;6.70;;;9.70;99.90;8.80;100346;;;;559457;252;24159;-77
2023/05/23 02:46:40;;;;;;;10.57;5.63;;;9.50;99.90;8.80;100333;;;;560045;252;24115;-78
2023/05/23 02:49:08;;;;;;;10.87;5.20;;;9.50;99.90;8.80;100334;;;;560122;252;24109;-78
2023/05/23 02:51:36;;;;;;;23.67;6.47;;;9.70;99.90;8.80;100334;;;;559853;252;24126;-73
2023/05/23 02:54:04;;;;;;;10.37;5.43;;;9.80;99.90;8.90;100335;;;;559683;252;24125;-74
2023/05/23 02:56:32;;;;;;;11.87;5.87;;;10.50;99.90;8.90;100335;;;;560478;252;24117;-78
2023/05/23 02:59:00;;;;;;;9.83;5.47;;;9.90;99.90;9.00;100331;;;;560044;252;24142;-78
2023/05/23 03:01:28;;;;;;;15.00;6.17;;;9.70;99.90;9.10;100334;;;;560072;252;24109;-79
2023/05/23 03:03:56;;;;;;;16.53;6.23;;;10.10;99.90;9.20;100334;;;;560046;252;24115;-77
2023/05/23 03:06:26;;;;;;;13.90;5.50;;;9.60;99.90;9.30;100332;;;;560057;252;24136;-77
2023/05/23 03:08:52;;;;;;;10.27;5.03;;;10.40;99.90;9.40;100318;;;;559968;252;24124;-78
2023/05/23 03:11:21;;;;;;;14.30;5.27;;;10.10;99.90;9.50;100318;;;;559718;252;24113;-77
2023/05/23 03:13:48;;;;;;;12.13;5.53;;;10.40;99.90;9.60;100315;;;;559660;252;24119;-74
2023/05/23 03:16:16;;;;;;;14.90;6.50;;;10.20;99.90;9.70;100310;;;;559706;252;24124;-76
2023/05/23 03:18:44;;;;;;;14.13;6.17;;;10.60;99.90;9.90;100309;;;;559628;252;24116;-79
2023/05/23 03:21:12;;;;;;;14.13;5.87;;;10.70;99.90;10.00;100322;;;;559733;252;24146;-78
2023/05/23 03:23:40;;;;;;;12.40;5.90;;;12.00;99.90;10.10;100315;;;;560113;251;24121;-81
2023/05/23 03:26:08;;;;;;;24.47;5.60;;;11.00;99.90;10.30;100311;;;;558846;252;24151;-81
2023/05/23 03:28:36;;;;;;;12.23;5.30;;;11.20;99.90;10.60;100313;;;;558890;251;24192;-79
2023/05/23 03:31:04;;;;;;;11.13;4.93;;;11.80;99.90;11.00;100315;;;;558815;251;24142;-79
2023/05/23 03:33:35;;;;;;;11.23;5.07;;;12.30;99.90;11.80;100323;;;;559181;252;24129;-80
2023/05/23 03:36:00;;;;;;;11.77;6.23;;;13.20;99.90;12.70;100321;;;;559088;252;24124;-77
2023/05/23 03:38:28;;;;;;;15.50;5.77;;;14.00;99.90;13.70;100321;;;;559153;252;24131;-78
2023/05/23 03:40:56;;;;;;;13.57;5.73;;;15.30;99.90;14.60;100316;;;;559140;251;24152;-74
2023/05/23 03:43:24;;;;;;;12.40;5.93;;;16.10;99.90;15.40;100314;;;;563200;250;46425;-74
2023/05/23 03:45:53;;;;;;;9.50;5.70;;;16.80;99.90;16.20;100308;;;;560897;252;24120;-74
2023/05/23 03:48:21;;;;;;;11.07;6.03;;;17.80;99.90;17.00;100316;;;;560551;251;24155;-75
2023/05/23 03:50:49;;;;;;;13.43;5.70;;;18.00;99.90;17.80;100310;;;;560527;251;24116;-75
2023/05/23 03:53:16;;;;;;;11.47;5.43;;;19.00;99.90;18.40;100311;;;;560089;251;24105;-74
2023/05/23 03:55:44;;;;;;;14.40;5.93;;;20.40;99.90;19.20;100305;;;;559939;251;23130;-78
2023/05/23 03:58:12;;;;;;;10.43;6.07;;;20.50;99.90;20.00;100303;;;;559493;252;23173;-79
2023/05/23 04:00:40;;;;;;;15.23;5.93;;;21.50;99.90;20.70;100310;;;;559275;251;24119;-76
2023/05/23 04:03:09;;;;;;;18.07;6.90;;;21.90;99.90;21.40;100311;;;;559526;251;24207;-80
2023/05/23 04:05:36;;;;;;;16.70;6.50;;;22.70;99.90;21.90;100310;;;;559358;251;24145;-76
2023/05/23 04:08:04;;;;;;;10.07;6.30;;;23.20;99.90;22.50;100315;;;;559359;251;24090;-79
2023/05/23 04:10:32;;;;;;;14.30;5.90;;;23.20;99.90;23.20;100307;;;;559550;252;23244;-80
2023/05/23 04:13:03;;;;;;;12.93;5.53;;;24.00;99.90;23.90;100309;;;;559624;252;24124;-80
2023/05/23 04:15:28;;;;;;;12.50;5.65;;;25.30;95.70;24.70;100306;;;;554928;252;35540;-76
2023/05/23 04:17:56;;;;;;;10.97;5.87;;;26.00;92.90;25.00;100298;;;;560173;251;23111;-76
2023/05/23 04:20:24;;;;;;;10.53;4.93;;;25.80;92.80;25.40;100304;;;;559882;252;23182;-74
2023/05/23 04:22:55;;;;;;;13.07;5.47;;;26.30;88.30;25.60;100299;;;;559752;251;24146;-74
2023/05/23 04:25:20;;;;;;;11.47;5.10;;;26.80;85.50;25.80;100306;;;;559314;252;24198;-75
2023/05/23 04:27:47;;;;;;;7.30;4.77;;;27.30;83.70;25.90;100298;;;;559613;252;23217;-77
2023/05/23 04:30:16;;;;;;;11.97;5.53;;;27.10;81.60;26.00;100308;;;;559552;251;23222;-75
2023/05/23 04:32:43;;;;;;;10.03;4.77;;;27.10;78.50;26.10;100306;;;;558484;252;24133;-74
2023/05/23 04:35:11;;;;;;;18.10;5.83;;;27.40;77.30;26.40;100304;;;;558697;252;23119;-75
2023/05/23 04:37:39;;;;;;;16.80;5.27;;;27.70;76.10;26.70;100302;;;;560096;251;23169;-76
2023/05/23 04:40:07;;;;;;;12.27;5.10;;;27.70;75.70;27.30;100303;;;;560083;252;23136;-76
2023/05/23 04:42:35;;;;;;;11.55;5.68;;;28.30;73.40;27.80;100305;;;;560070;252;23123;-76
2023/05/23 04:45:03;;;;;;;16.58;5.43;;;29.30;68.40;28.30;100306;;;;559797;251;23154;-75
2023/05/23 04:47:33;;;;;;;13.38;4.75;;;29.90;67.00;29.00;100311;;;;559318;252;23122;-75
2023/05/23 04:50:01;;;;;;;12.55;4.70;;;30.60;64.70;29.60;100309;;;;559283;252;24165;-75
2023/05/23 04:52:32;;;;;;;7.70;5.32;;;31.20;62.80;30.20;100308;;;;567772;252;23222;-77
2023/05/23 04:54:57;;;;;;;9.70;5.87;;;31.80;60.70;30.70;100309;;;;559404;250;23190;-74
2023/05/23 04:57:25;;;;;;;11.82;5.53;;;32.00;58.90;31.10;100313;;;;561319;250;23149;-78
2023/05/23 04:59:53;;;;;;;7.60;4.87;;;32.20;59.30;31.60;100310;;;;560166;252;23178;-74
2023/05/23 05:02:21;;;;;;;8.90;4.78;;;33.10;56.40;32.30;100315;;;;560204;252;23133;-74
2023/05/23 05:04:50;;;;;;;8.23;4.47;;;33.20;56.40;32.80;100322;;;;559969;251;24146;-74
2023/05/23 05:07:17;;;;;;;10.20;5.05;;;33.80;55.30;33.50;100314;;;;559830;252;23120;-74
2023/05/23 05:09:45;;;;;;;9.30;5.25;;;34.50;53.60;34.00;100316;;;;559731;251;23119;-75
2023/05/23 05:12:12;;;;;;;9.07;5.18;;;35.00;52.50;34.40;100322;;;;559707;251;23115;-75
2023/05/23 05:14:40;;;;;;;7.82;4.97;;;35.60;50.60;34.60;100322;;;;559544;251;23131;-75
2023/05/23 05:17:09;;;;;;;14.10;5.70;;;35.60;50.40;34.60;100318;;;;559578;251;23115;-76
2023/05/23 05:19:38;;;;;;;17.80;5.50;;;35.20;49.90;34.00;100323;;;;559850;251;24123;-74
2023/05/23 05:22:06;;;;;;;16.00;6.05;;;34.60;50.50;33.40;100315;;;;560131;252;23146;-76
2023/05/23 05:24:35;;;;;;;11.95;5.53;;;34.30;50.90;33.20;100325;;;;555271;252;46457;-77
2023/05/23 05:27:08;;;;;;;6.12;4.50;;;34.00;51.30;33.00;100315;;;;559893;251;23136;-76
2023/05/23 05:29:37;;;;;;;13.18;5.45;;;33.60;51.30;32.60;100318;;;;559297;252;23157;-76
2023/05/23 05:32:02;;;;;;;11.45;5.43;;;33.40;51.80;32.20;100319;;;;558893;252;23130;-77
2023/05/23 05:34:30;;;;;;;10.75;5.22;;;32.30;52.00;31.70;100321;;;;562679;252;23124;-75
2023/05/23 05:36:58;;;;;;;12.15;5.03;;;32.60;53.20;31.80;100314;;;;559544;251;23114;-75
2023/05/23 05:39:26;;;;;;;10.50;5.28;;;32.50;53.70;32.50;100307;;;;559584;251;23129;-78
2023/05/23 05:41:54;;;;;;;7.90;4.65;;;34.30;52.80;34.00;100310;;;;559752;251;24153;-78
2023/05/23 05:44:21;;;;;;;12.35;5.18;;;35.30;50.30;35.20;100311;;;;559657;252;23124;-76
2023/05/23 05:46:50;;;;;;;13.02;5.22;;;36.20;48.60;35.90;100314;;;;559635;252;23162;-77
2023/05/23 05:49:17;;;;;;;13.80;4.95;;;36.40;49.20;37.00;100317;;;;559748;252;23131;-76
2023/05/23 05:51:45;;;;;;;9.02;4.97;;;37.40;48.00;37.90;100320;;;;559494;251;23179;-75
2023/05/23 05:54:13;;;;;;;14.07;5.00;;;39.10;44.80;38.60;100316;;;;559574;252;23120;-81
2023/05/23 05:56:41;;;;;;;15.27;6.43;;;39.20;45.30;39.30;100316;;;;559581;251;23123;-76
2023/05/23 05:59:12;;;;;;;16.35;6.15;;;39.90;45.00;39.80;100311;;;;559255;251;23141;-76
2023/05/23 06:01:37;;;;;;;6.72;4.35;;;40.40;44.20;40.20;100318;;;;559161;252;23141;-75
2023/05/23 06:04:05;;;;;;;16.90;5.20;;;40.90;43.30;40.50;100320;;;;559754;252;23164;-77
2023/05/23 06:06:33;;;;;;;14.05;4.47;;;41.20;42.40;40.90;100316;;;;559914;250;23124;-76
2023/05/23 06:09:01;;;;;;;14.27;5.22;;;41.50;41.20;40.70;100317;;;;561291;252;23114;-78
2023/05/23 06:11:29;;;;;;;16.92;5.95;;;41.20;40.40;40.50;100325;;;;561238;251;23172;-76
2023/05/23 06:13:56;;;;;;;12.82;4.12;;;41.30;41.00;40.40;100317;;;;561207;252;23145;-78
2023/05/23 06:16:24;;;;;;;17.12;5.07;;;41.20;39.80;40.10;100316;;;;561018;251;23174;-76
2023/05/23 06:18:52;;;;;;;13.80;5.07;;;40.90;40.80;40.20;100317;;;;559996;251;23136;-77
2023/05/23 06:21:21;;;;;;;10.43;4.75;;;40.80;40.60;40.10;100316;;;;559888;251;23138;-75
2023/05/23 06:23:51;;;;;;;22.27;6.00;;;41.00;40.30;40.50;100309;;;;559964;251;23120;-74
2023/05/23 06:26:18;;;;;;;31.95;7.18;;;41.10;40.50;40.50;100316;;;;559778;252;23123;-74
2023/05/23 06:28:47;;;;;;;21.00;6.30;;;41.90;41.10;40.60;100309;;;;559536;251;24118;-76
2023/05/23 06:31:16;;;;;;;15.38;4.82;;;41.20;40.40;40.60;100310;;;;559421;252;23178;-77
2023/05/23 06:33:44;;;;;;;11.80;5.97;;;41.00;41.10;40.30;100313;;;;560096;252;23108;-77
2023/05/23 06:36:12;;;;;;;14.87;5.50;;;40.60;40.50;40.40;100310;;;;559766;252;23119;-76
2023/05/23 06:38:40;;;;;;;16.95;5.40;;;41.00;40.60;40.20;100312;;;;555011;252;35494;-76
2023/05/23 06:41:08;;;;;;;16.85;5.53;;;40.90;40.70;39.80;100307;;;;560015;251;23116;-78
2023/05/23 06:43:36;;;;;;;11.90;5.32;;;40.60;41.00;40.00;100309;;;;560123;251;23119;-78
2023/05/23 06:46:07;;;;;;;20.73;6.32;;;40.80;40.80;39.90;100314;;;;560069;252;23114;-76
2023/05/23 06:48:32;;;;;;;17.05;5.50;;;40.50;41.10;39.90;100307;;;;559565;252;23126;-79
2023/05/23 06:51:01;;;;;;;7.57;4.68;;;40.50;42.40;40.50;100306;;;;559770;251;23123;-77
2023/05/23 06:53:29;;;;;;;11.15;4.87;;;40.80;41.20;41.10;100303;;;;559628;252;23120;-75
2023/05/23 06:55:57;;;;;;;13.48;4.93;;;41.40;40.90;42.10;100309;;;;559532;251;23163;-77
2023/05/23 06:58:25;;;;;;;15.05;5.15;;;42.40;41.10;43.30;100309;;;;559079;252;23355;-79
2023/05/23 07:00:53;;;;;;;9.50;5.00;;;43.40;38.80;43.70;100304;;;;559312;252;23167;-77
2023/05/23 07:03:20;;;;;;;6.93;4.37;;;44.10;37.90;44.20;100304;;;;559008;252;23137;-79
2023/05/23 07:05:52;;;;;;;7.75;4.28;;;44.60;38.10;44.30;100304;;;;559421;251;23136;-80
2023/05/23 07:08:17;;;;;;;5.07;4.35;;;44.80;37.40;44.60;100305;;;;558990;252;23176;-81
2023/05/23 07:10:46;;;;;;;13.10;4.65;;;45.20;38.10;44.80;100307;;;;559039;252;23179;-82
2023/05/23 07:13:14;;;;;;;13.20;5.10;;;45.20;37.40;45.20;100308;;;;559390;252;23123;-80
2023/05/23 07:15:42;;;;;;;11.50;4.28;;;45.50;37.10;45.30;100307;;;;559216;252;24169;-81
2023/05/23 07:18:10;;;;;;;11.18;4.55;;;45.70;35.30;45.30;100302;;;;559353;250;23149;-76
2023/05/23 07:20:38;;;;;;;8.63;4.65;;;45.80;35.60;45.10;100306;;;;560224;250;23121;-82
2023/05/23 07:23:06;;;;;;;6.87;4.55;;;45.70;35.00;45.00;100298;;;;559919;251;23180;-80
2023/05/23 07:25:34;;;;;;;7.37;4.05;;;45.60;35.00;44.20;100298;;;;559831;251;23162;-76
2023/05/23 07:28:05;;;;;;;6.87;4.22;;;45.00;35.20;44.10;100301;;;;559527;252;23184;-79
2023/05/23 07:30:30;;;;;;;8.65;4.90;;;44.60;35.70;44.30;100301;;;;559453;252;24173;-78
2023/05/23 07:32:59;;;;;;;7.22;3.58;;;44.90;35.00;44.60;100296;;;;559283;252;23139;-78
2023/05/23 07:35:27;;;;;;;6.55;3.58;;;44.90;35.00;45.00;100293;;;;560032;251;23170;-76
2023/05/23 07:37:58;;;;;;;23.02;5.60;;;45.20;34.40;45.90;100294;;;;559800;252;23123;-77
2023/05/23 07:40:23;;;;;;;10.57;4.28;;;46.70;32.50;46.50;100293;;;;559662;252;23137;-78
2023/05/23 07:42:52;;;;;;;7.55;4.37;;;46.60;32.40;46.60;100293;;;;559577;252;24176;-79
2023/05/23 07:45:19;;;;;;;12.57;4.53;;;46.90;32.40;46.50;100296;;;;559513;252;23130;-82
2023/05/23 07:47:48;;;;;;;8.50;3.42;;;47.00;32.30;46.50;100294;;;;559775;252;23157;-77
2023/05/23 07:50:15;;;;;;;10.15;4.10;;;47.00;31.80;46.70;100289;;;;559669;252;23127;-82
2023/05/23 07:52:43;;;;;;;8.80;4.22;;;47.10;31.60;46.70;100288;;;;559739;252;23155;-79
2023/05/23 07:55:11;;;;;;;16.75;4.43;;;47.10;32.30;47.10;100286;;;;559543;252;23120;-77
2023/05/23 07:57:39;;;;;;;20.27;4.87;;;47.40;31.80;47.60;100291;;;;559305;252;23141;-75
2023/05/23 08:00:08;;;;;;;16.17;4.03;;;47.80;31.60;48.00;100293;;;;559328;251;23171;-77
2023/05/23 08:02:39;;;;;;;10.93;4.53;;;48.30;32.10;48.20;100289;;;;559355;252;23117;-79
2023/05/23 08:05:06;;;;;;;10.98;4.37;;;48.60;30.30;47.70;100294;;;;558888;252;24252;-77
2023/05/23 08:07:31;;;;;;;7.87;3.65;;;48.30;30.70;47.40;100294;;;;558896;252;23137;-76
2023/05/23 08:09:59;;;;;;;12.57;3.95;;;48.00;30.90;47.20;100293;;;;559318;251;23184;-76
2023/05/23 08:12:27;;;;;;;3.75;3.40;;;47.50;30.40;46.70;100303;;;;559032;252;23154;-76
2023/05/23 08:14:55;;;;;;;11.38;4.20;;;47.40;30.30;45.70;100288;;;;559096;251;23116;-78
2023/05/23 08:17:23;;;;;;;9.32;3.65;;;46.70;30.20;45.20;100288;;;;559481;251;23217;-76
2023/05/23 08:19:51;;;;;;;17.40;4.95;;;46.10;31.10;45.60;100290;;;;559627;252;23144;-75
2023/05/23 08:22:19;;;;;;;10.95;3.72;;;46.20;32.10;46.20;100287;;;;559267;252;23140;-75
2023/05/23 08:24:47;;;;;;;12.37;4.18;;;46.60;32.10;46.50;100284;;;;559122;252;23157;-77
2023/05/23 08:27:15;;;;;;;18.25;4.20;;;46.80;31.50;46.50;100292;;;;559225;252;23159;-77
2023/05/23 08:29:43;;;;;;;17.25;4.68;;;46.90;30.80;46.30;100288;;;;559480;250;23126;-75
2023/05/23 08:32:12;;;;;;;17.00;4.72;;;46.90;31.20;45.60;100284;;;;560759;252;24247;-75
2023/05/23 08:34:41;;;;;;;9.02;2.97;;;46.60;30.70;44.50;100288;;;;560702;252;23130;-76
2023/05/23 08:37:08;;;;;;;4.70;3.53;;;45.80;30.10;43.20;100288;;;;560267;252;23140;-77
2023/05/23 08:39:36;;;;;;;6.32;3.87;;;44.60;31.10;42.70;100289;;;;560171;252;24207;-77
2023/05/23 08:42:07;;;;;;;8.82;4.05;;;43.10;32.40;42.20;100289;;;;560282;251;23121;-79
2023/05/23 08:44:32;;;;;;;10.85;3.83;;;43.10;33.00;41.90;100282;;;;560116;252;23126;-80
2023/05/23 08:47:04;;;;;;;6.47;3.97;;;42.80;33.40;41.50;100288;;;;559012;252;23224;-78
2023/05/23 08:49:32;;;;;;;16.20;4.37;;;42.30;33.50;40.80;100286;;;;559647;252;23125;-77
2023/05/23 08:52:02;;;;;;;13.05;4.75;;;41.20;34.20;40.00;100294;;;;559790;252;23155;-77
2023/05/23 08:54:29;;;;;;;16.48;4.82;;;40.90;34.60;39.40;100291;;;;559784;252;24169;-77
2023/05/23 08:56:55;;;;;;;12.02;4.10;;;39.70;35.70;38.70;100284;;;;559318;252;23126;-79
2023/05/23 08:59:23;;;;;;;12.10;4.00;;;39.60;35.60;38.50;100293;;;;560093;251;23123;-79
2023/05/23 09:01:54;;;;;;;8.82;3.72;;;39.20;36.30;38.30;100285;;;;559281;252;23145;-76
2023/05/23 09:04:18;;;;;;;8.90;3.70;;;38.80;35.80;38.60;100289;;;;558721;252;23150;-77
2023/05/23 09:06:46;;;;;;;6.57;3.83;;;39.00;37.30;39.50;100284;;;;559787;252;23213;-78
2023/05/23 09:09:19;;;;;;;12.05;4.10;;;40.60;36.80;40.50;100288;;;;559622;251;23131;-77
2023/05/23 09:11:46;;;;;;;19.98;4.45;;;40.60;36.70;41.10;100283;;;;559287;252;23107;-77
2023/05/23 09:14:22;;;;;;;12.15;4.28;;;41.40;35.90;41.90;100285;;;;559622;252;23123;-81
2023/05/23 09:16:43;;;;;;;14.10;5.40;;;42.30;35.00;42.60;100282;;;;559145;252;23123;-78
2023/05/23 09:19:11;;;;;;;7.80;4.50;;;43.00;34.30;43.00;100284;;;;559390;252;23225;-80
2023/05/23 09:21:46;;;;;;;7.03;4.15;;;43.40;32.60;42.20;100286;;;;567793;252;23205;-75
2023/05/23 09:24:14;;;;;;;8.88;4.18;;;43.30;32.50;41.90;100279;;;;559357;252;24142;-76
2023/05/23 09:26:43;;;;;;;13.70;5.43;;;43.40;34.40;42.60;100280;;;;559365;251;23129;-76
2023/05/23 09:29:11;;;;;;;9.70;4.12;;;44.10;32.20;43.30;100273;;;;559186;252;23139;-78
2023/05/23 09:31:40;;;;;;;5.05;3.65;;;44.60;31.60;43.60;100280;;;;559277;252;23096;-77
2023/05/23 09:34:09;;;;;;;10.32;3.87;;;44.50;31.50;44.00;100268;;;;567306;252;23186;-76
2023/05/23 09:36:36;;;;;;;14.27;5.12;;;45.00;32.00;44.80;100273;;;;558920;252;23202;-78
2023/05/23 09:39:07;;;;;;;6.57;3.83;;;45.70;31.70;46.00;100276;;;;567363;252;23149;-78
2023/05/23 09:41:35;;;;;;;9.05;4.25;;;46.80;30.60;46.80;100275;;;;559260;250;24132;-80
2023/05/23 09:44:08;;;;;;;5.20;4.07;;;47.70;30.50;47.40;100273;;;;560599;252;23129;-77
2023/05/23 09:46:37;;;;;;;13.05;5.28;;;48.50;29.40;46.10;100274;;;;568789;252;23099;-76
2023/05/23 09:49:04;;;;;;;13.62;5.25;;;46.50;29.20;44.20;100276;;;;560144;252;23149;-78
2023/05/23 09:51:35;;;;;;;8.27;4.35;;;46.40;29.80;43.70;100275;;;;558671;252;23215;-78
2023/05/23 09:54:00;;;;;;;16.98;5.82;;;45.50;31.30;44.00;100277;;;;567981;252;23150;-77
2023/05/23 09:56:32;;;;;;;11.95;4.45;;;45.40;30.70;43.80;100279;;;;560025;252;23150;-77
2023/05/23 09:59:06;;;;;;;7.78;4.55;;;45.30;30.20;43.80;100282;;;;559585;252;23178;-83
2023/05/23 10:01:32;;;;;;;9.18;3.87;;;45.10;30.00;43.40;100278;;;;559764;252;23151;-80
2023/05/23 10:04:01;;;;;;;19.08;5.15;;;45.00;30.00;43.20;100278;;;;566510;252;23181;-74
2023/05/23 10:06:42;;;;;;;15.57;5.10;;;44.40;30.30;42.90;100270;;;;558369;252;23177;-77
2023/05/23 10:09:11;;;;;;;7.22;3.80;;;43.90;30.40;42.40;100281;;;;558729;252;23210;-77
2023/05/23 10:12:00;;;;;;;34.20;6.10;;;43.90;30.40;41.50;100266;;;;559232;252;23140;-82
2023/05/23 10:14:28;;;;;;;15.32;5.53;;;42.60;31.50;41.10;100261;;;;559286;252;24171;-77
2023/05/23 10:16:59;;;;;;;15.57;4.60;;;42.50;31.40;41.10;100262;;;;559224;252;23141;-76
2023/05/23 10:19:31;;;;;;;21.48;5.55;;;42.00;33.00;40.90;100256;;;;556950;252;24243;-79
2023/05/23 10:21:58;;;;;;;20.83;6.80;;;42.00;32.20;41.10;100265;;;;559020;252;23126;-79
2023/05/23 10:24:26;;;;;;;12.27;4.80;;;42.00;32.80;40.70;100255;;;;559039;252;24176;-80
2023/05/23 10:26:57;;;;;;;13.43;4.75;;;41.90;32.30;40.20;100264;;;;559031;252;23118;-77
2023/05/23 10:29:25;;;;;;;11.98;5.57;;;41.60;33.00;38.90;100261;;;;558907;252;23206;-80
2023/05/23 10:31:53;;;;;;;16.20;4.95;;;39.70;34.00;38.20;100260;;;;559172;252;23142;-78
2023/05/23 10:34:25;;;;;;;15.10;5.07;;;38.70;33.80;37.20;100252;;;;558900;252;23138;-76
2023/05/23 10:37:05;;;;;;;6.70;4.20;;;37.20;34.50;35.70;100254;;;;558658;252;23151;-78
2023/05/23 10:40:04;;;;;;;7.70;3.83;;;36.00;36.50;34.30;100256;;;;558732;252;23220;-81
2023/05/23 10:42:50;;;;;;;22.73;7.55;;;33.60;37.80;33.30;100256;;;;545428;252;23173;-81
2023/05/23 10:45:18;;;;;;;16.73;5.25;;;33.40;39.30;32.60;100246;;;;558637;252;23120;-79
2023/05/23 10:47:48;;;;;;;20.67;6.05;;;32.40;40.00;31.60;100246;;;;558400;252;23132;-79
2023/05/23 10:50:32;;;;;;;23.85;6.35;;;31.60;41.60;30.90;100249;;;;559675;252;24164;-79
2023/05/23 10:53:02;;;;;;;8.63;4.47;;;30.90;43.00;29.80;100259;;;;559818;250;24168;-80
2023/05/23 10:55:36;;;;;;;9.27;4.18;;;29.60;43.70;29.00;100249;;;;561405;252;23132;-79
2023/05/23 10:58:18;;;;;;;16.35;5.68;;;29.20;44.70;28.50;100239;;;;560727;251;23146;-80
2023/05/23 11:00:56;;;;;;;12.90;4.87;;;29.00;44.70;28.40;100235;;;;560342;252;23160;-79
2023/05/23 11:03:38;;;;;;;14.75;4.70;;;28.30;45.50;28.30;100232;;;;560676;252;24136;-76
2023/05/23 11:06:10;;;;;;;8.07;3.92;;;28.40;47.10;28.10;100245;;;;559592;252;25273;-76
2023/05/23 11:08:40;;;;;;;12.45;3.62;;;28.30;46.30;27.90;100240;;;;559729;252;23171;-78
2023/05/23 11:11:05;;;;;;;16.20;5.23;;;28.30;46.20;27.80;100250;;;;560472;252;23126;-81
2023/05/23 11:13:55;;;;;;;11.60;4.87;;;28.10;46.10;27.50;100240;;;;560227;252;23114;-77